• Join FlightAware (Why Join?)
  • Login
  • US Flag 
07:02PM EDT


 

Airport Tracker/Info


-or-


 

Live Flight TrackerFlight Track Log ✈ SKW5510 ✈ 24-Apr-2013 ✈ KMRY - KDEN

Flight Track Log - Related Links

Times and Time Zones

All times are in EDT time to prevent confusion due to time zone crossing. See the SKW5510 flight status page for this flight to view local times or setup timezone preferences in your user account.

Time Position Orientation Groundspeed Altitude Reporting Facility
EDT Latitude Longitude Course Direction KTS MPH feet Rate Location/Type
08:50AM 36.6000 -121.8833 90° East 171 197 1,600  Level Northern Cal TRACON
08:50AM 36.6500 -121.9000 345° North 209 241 3,200 1,980 Climbing Northern Cal TRACON
08:51AM 36.6833 -121.8500 50° Northeast 228 262 5,400 1,920 Climbing Northern Cal TRACON
08:52AM 36.7000 -121.7667 76° East 229 264 6,900 780 Climbing Northern Cal TRACON
08:53AM 36.6776 -121.2032 84° East  Level FlightAware Approximate
08:53AM 36.7000 -121.7333 90° East 283 326 6,900  Level Northern Cal TRACON
08:54AM 36.6963 -121.0427 80° East  Level FlightAware Approximate
08:54AM 36.7167 -121.5833 82° East 303 349 11,300  Level Northern Cal TRACON
08:55AM 36.7000 -120.8809 90° East  Level FlightAware Approximate
08:55AM 36.7333 -121.4500 81° East 335 386 12,900  Level Northern Cal TRACON
08:56AM 36.7383 -121.3428 87° East 341 392 14,400 1,380 Climbing Oakland Center
08:57AM 36.7508 -121.2169 83° East 360 414 15,700 1,260 Climbing Oakland Center
08:58AM 36.7639 -121.0861 83° East 374 430 17,000 1,380 Climbing Oakland Center
08:59AM 36.7775 -120.9531 83° East 382 440 18,600 1,560 Climbing Oakland Center
09:00AM 36.7906 -120.8194 83° East 386 444 20,200 1,380 Climbing Oakland Center
09:01AM 36.8025 -120.6872 84° East 387 445 21,400 1,140 Climbing Oakland Center
09:02AM 36.8144 -120.5511 84° East 394 453 22,500 1,020 Climbing Oakland Center
09:03AM 36.8272 -120.4264 83° East 398 458 23,500 960 Climbing Oakland Center
09:04AM 36.8403 -120.2892 83° East 398 458 24,500 840 Climbing Oakland Center
09:05AM 36.8739 -120.1453 74° East 408 470 25,200 660 Climbing Oakland Center
09:06AM 36.9339 -120.0225 59° Northeast 415 478 25,900 720 Climbing Oakland Center
09:07AM 36.9950 -119.8981 58° Northeast 420 483 26,700 780 Climbing Oakland Center
09:08AM 37.0564 -119.7736 58° Northeast 421 484 27,500 720 Climbing Oakland Center
09:09AM 37.1172 -119.6481 59° Northeast 422 486 28,200 600 Climbing Oakland Center
09:10AM 37.1794 -119.5222 58° Northeast 426 490 28,800 540 Climbing Oakland Center
09:11AM 37.2422 -119.3928 59° Northeast 435 501 29,300 480 Climbing Oakland Center
09:12AM 37.3053 -119.2614 59° Northeast 439 505 29,800 480 Climbing Oakland Center
09:13AM 37.3689 -119.1283 59° Northeast 441 507 30,300 480 Climbing Oakland Center
09:14AM 37.4306 -118.9939 60° Northeast 442 509 30,800 480 Climbing Oakland Center
09:15AM 37.4947 -118.8589 59° Northeast 448 516 31,300 480 Climbing Oakland Center
09:17AM 37.5617 -118.7203 59° Northeast 450 518 31,800 540 Climbing Oakland Center
09:18AM 37.6250 -118.5844 59° Northeast 449 517 32,400 540 Climbing Oakland Center
09:19AM 37.6883 -118.4500 59° Northeast 445 512 32,900 240 Climbing Oakland Center
09:20AM 37.7497 -118.3119 61° Northeast 449 517 33,000  Climbing Oakland Center
09:21AM 37.8147 -118.1736 59° Northeast 454 522 33,000  Level Oakland Center
09:22AM 37.8836 -118.0325 58° Northeast 467 537 33,000  Level Oakland Center
09:23AM 37.9503 -117.8872 60° Northeast 473 544 33,000  Level Oakland Center
09:24AM 38.0133 -117.7394 62° Northeast 475 547 33,000  Level Oakland Center
09:25AM 38.0544 -117.5819 72° East 469 540 33,000  Level Oakland Center
09:26AM 38.0967 -117.4250 71° East 471 542 33,000  Level Oakland Center
09:27AM 38.1472 -117.2417 71° East 468 539 33,000  Level Oakland Center
09:28AM 38.1894 -117.0817 71° East 475 547 33,000  Level Oakland Center
09:28AM 38.2192 -116.9678 72° East 473 544 33,000  Level Salt Lake Center
09:29AM 38.2617 -116.8067 71° East 477 549 33,000  Level Salt Lake Center
09:30AM 38.3042 -116.6461 71° East 479 551 33,000  Level Salt Lake Center
09:32AM 38.3553 -116.4508 71° East 483 556 33,000  Level Oakland Center
09:33AM 38.3983 -116.2861 72° East 488 562 33,000  Level Oakland Center
09:34AM 38.4397 -116.1214 72° East 487 560 33,000  Level Oakland Center
09:34AM 38.4736 -115.9903 72° East 487 560 33,000  Level Salt Lake Center
09:35AM 38.5153 -115.8256 72° East 488 562 33,000  Level Salt Lake Center
09:37AM 38.5575 -115.6589 72° East 492 566 33,000  Level Salt Lake Center
09:38AM 38.6000 -115.4919 72° East 495 570 33,000  Level Salt Lake Center
09:39AM 38.6475 -115.2992 72° East 494 568 33,000  Level Salt Lake Center
09:40AM 38.6881 -115.1319 73° East 494 568 33,000  Level Salt Lake Center
09:41AM 38.7294 -114.9639 72° East 494 568 33,000  Level Salt Lake Center
09:42AM 38.7706 -114.7953 73° East 495 570 33,000  Level Salt Lake Center
09:43AM 38.8111 -114.6278 73° East 495 570 33,000  Level Salt Lake Center
09:44AM 38.8522 -114.4592 73° East 495 570 33,000  Level Salt Lake Center
09:45AM 38.8936 -114.2889 73° East 498 573 33,000  Level Salt Lake Center
09:46AM 38.9342 -114.1197 73° East 497 572 33,000  Level Salt Lake Center
09:47AM 38.9744 -113.9489 73° East 499 574 33,000  Level Salt Lake Center
09:48AM 39.0225 -113.7431 73° East 501 577 33,000  Level Salt Lake Center
09:49AM 39.0625 -113.5708 73° East 502 578 33,000  Level Salt Lake Center
09:50AM 39.1017 -113.3972 74° East 504 580 33,000  Level Salt Lake Center
09:51AM 39.1414 -113.2239 73° East 504 580 33,000  Level Salt Lake Center
09:52AM 39.1811 -113.0481 74° East 508 585 33,000  Level Salt Lake Center
09:53AM 39.2211 -112.8758 73° East 506 582 33,000  Level Salt Lake Center
09:54AM 39.2600 -112.6981 74° East 512 589 33,000  Level Salt Lake Center
09:55AM 39.2983 -112.5289 74° East 514 592 33,000  Level Salt Lake Center
09:56AM 39.3397 -112.3144 76° East 516 594 33,000  Level Salt Lake Center
09:57AM 39.3719 -112.1336 77° East 518 596 33,000  Level Salt Lake Center
09:58AM 39.4069 -111.9539 76° East 519 597 33,000  Level Salt Lake Center
09:59AM 39.4389 -111.7728 77° East 519 597 33,000  Level Salt Lake Center
10:00AM 39.4725 -111.5903 77° East 524 603 33,000  Level Salt Lake Center
10:01AM 39.5047 -111.4081 77° East 523 602 33,000  Level Salt Lake Center
10:02AM 39.5406 -111.2014 77° East 526 605 33,000  Level Salt Lake Center
10:03AM 39.5719 -111.0247 77° East 526 605 33,000  Level Salt Lake Center
10:04AM 39.6031 -110.8456 77° East 530 610 33,000  Level Salt Lake Center
10:05AM 39.6372 -110.6375 78° East 529 609 33,000  Level Salt Lake Center
10:06AM 39.6692 -110.4606 77° East 527 606 33,000  Level Salt Lake Center
10:07AM 39.7036 -110.2539 78° East 525 604 33,000  Level Salt Lake Center
10:08AM 39.7336 -110.0767 78° East 524 603 33,000  Level Salt Lake Center
10:09AM 39.7619 -109.9014 78° East 520 598 33,000  Level Salt Lake Center
10:10AM 39.7947 -109.6981 78° East 515 593 33,000  Level Salt Lake Center
10:11AM 39.8225 -109.5219 78° East 519 597 33,000  Level Salt Lake Center
10:12AM 39.8553 -109.3175 78° East 516 594 33,000  Level Salt Lake Center
10:13AM 39.8833 -109.1422 78° East 515 593 33,000  Level Salt Lake Center
10:14AM 39.9114 -108.9647 78° East 517 595 33,000  Level Salt Lake Center
10:15AM 39.9439 -108.7581 78° East 516 594 33,000  Level Salt Lake Center
10:16AM 39.9706 -108.5814 79° East 515 593 33,000  Level Salt Lake Center
10:17AM 39.9744 -108.5500 81° East 516 594 33,000  Level Denver Center
10:18AM 40.0047 -108.3442 79° East 516 594 33,000  Level Denver Center
10:19AM 40.0314 -108.1694 79° East 513 590 33,000  Level Denver Center
10:20AM 40.0622 -107.9644 79° East 514 592 33,000  Level Denver Center
10:21AM 40.0936 -107.7928 77° East 508 585 33,000  Level Denver Center
10:22AM 40.1283 -107.6214 75° East 509 586 33,000  Level Denver Center
10:23AM 40.1556 -107.4144 80° East 516 594 33,000  Level Denver Center
10:24AM 40.1747 -107.2367 82° East 515 593 33,000  Level Denver Center
10:25AM 40.1978 -107.0283 82° East 518 596 33,000  Level Denver Center
10:26AM 40.2186 -106.8392 82° East 515 593 33,000 -300 Level Denver Center
10:27AM 40.2386 -106.6528 82° East 514 592 32,400 -1,620 Descending Denver Center
10:28AM 40.2583 -106.4597 82° East 528 608 29,700 -2,520 Descending Denver Center
10:29AM 40.2764 -106.2708 83° East 544 626 27,200 -2,340 Descending Denver Center
10:30AM 40.2944 -106.0825 83° East 499 574 24,900 -2,340 Descending Denver Center
10:31AM 40.3114 -105.9117 83° East 471 542 22,400 -2,700 Descending Denver Center
10:32AM 40.3286 -105.7261 83° East 437 503 19,400 -2,100 Descending Denver Center
10:33AM 40.3439 -105.5731 82° East 421 484 18,100 -1,020 Descending Denver Center
10:34AM 40.3539 -105.4322 85° East 386 444 17,400 -900 Descending Denver Center
10:35AM 40.3386 -105.3086 99° East 348 400 16,300 -1,260 Descending Denver Center
10:36AM 40.3219 -105.1875 100° East 340 391 14,800 -1,320 Descending Denver Center
10:37AM 40.3050 -105.0600 100° East 330 380 13,600 -900 Descending Denver Center
10:38AM 40.2889 -104.9547 101° East 301 346 13,000 -780 Descending Denver Center
10:39AM 40.2403 -104.8694 127° Southeast 272 313 12,000 -1,020 Descending Denver Center
10:40AM 40.1878 -104.8008 135° Southeast 268 308 11,000 -960 Descending Denver Center
10:41AM 40.1197 -104.7556 153° Southeast 256 295 10,100 -900 Descending Denver Center
10:42AM 40.0633 -104.7172 153° Southeast 228 262 9,200 -1,080 Descending Denver Center
10:43AM 40.0108 -104.6953 162° South 202 232 7,900 -1,260 Descending Denver Center